Time;durP1;ratioP1;P1;durP2;ratioP2;P2;SDS_P1;SDS_P2;PMS_P1;PMS_P2;Temp;Humidity;BMP_temperature;BMP_pressure;BME280_temperature;BME280_humidity;BME280_pressure;Samples;Min_cycle;Max_cycle;Signal;HPM_P1;HPM_P2
2023/09/22 00:01:00;;;;;;;18.00;12.70;;;;;;;14.16;100.00;101256.70;105712;1255;73797;-73
2023/09/22 00:03:29;;;;;;;17.00;12.40;;;;;;;14.15;100.00;101257.85;105640;1255;63750;-71
2023/09/22 00:06:02;;;;;;;19.20;13.00;;;;;;;14.12;100.00;101260.81;105835;1251;72174;-72
2023/09/22 00:08:33;;;;;;;21.90;13.40;;;;;;;14.08;100.00;101261.41;105765;1255;61874;-73
2023/09/22 00:11:05;;;;;;;25.20;14.00;;;;;;;14.03;100.00;101255.20;105654;1251;60479;-73
2023/09/22 00:13:32;;;;;;;19.70;13.60;;;;;;;13.98;100.00;101256.05;105865;1251;73754;-74
2023/09/22 00:15:59;;;;;;;16.50;12.10;;;;;;;13.95;100.00;101260.00;105741;1255;63843;-72
2023/09/22 00:18:26;;;;;;;19.00;12.90;;;;;;;13.90;100.00;101261.71;105752;1256;71246;-73
2023/09/22 00:20:56;;;;;;;20.30;14.50;;;;;;;13.85;100.00;101262.17;105876;1255;61770;-73
2023/09/22 00:23:23;;;;;;;19.80;12.90;;;;;;;13.80;100.00;101262.65;105849;1254;60418;-75
2023/09/22 00:25:49;;;;;;;20.50;13.60;;;;;;;13.76;100.00;101259.63;105776;1251;73609;-72
2023/09/22 00:28:16;;;;;;;22.50;13.20;;;;;;;13.72;100.00;101263.75;105836;1255;62439;-73
2023/09/22 00:30:44;;;;;;;19.60;13.50;;;;;;;13.67;100.00;101261.52;105743;1251;72535;-74
2023/09/22 00:33:11;;;;;;;20.80;13.50;;;;;;;13.65;100.00;101266.60;105758;1252;62127;-71
2023/09/22 00:35:38;;;;;;;19.70;13.50;;;;;;;13.63;100.00;101267.45;105783;1256;61215;-74
2023/09/22 00:38:06;;;;;;;19.00;12.90;;;;;;;13.59;100.00;101265.77;105890;1251;72611;-74
2023/09/22 00:40:33;;;;;;;19.30;14.10;;;;;;;13.56;100.00;101269.80;105764;1253;63984;-73
2023/09/22 00:43:11;;;;;;;20.30;13.30;;;;;;;13.53;100.00;101264.90;105769;1251;73398;-72
2023/09/22 00:45:42;;;;;;;16.90;13.00;;;;;;;13.51;100.00;101265.03;105840;1251;61942;-76
2023/09/22 00:48:09;;;;;;;22.00;13.60;;;;;;;13.49;100.00;101262.34;105853;1251;60543;-73
2023/09/22 00:50:37;;;;;;;18.50;13.00;;;;;;;13.46;100.00;101263.21;105798;1255;73863;-73
2023/09/22 00:53:04;;;;;;;20.60;13.40;;;;;;;13.43;100.00;101263.05;105943;1251;62568;-73
2023/09/22 00:55:31;;;;;;;22.30;13.30;;;;;;;13.42;100.00;101262.77;105807;1251;71328;-74
2023/09/22 00:57:59;;;;;;;20.50;13.80;;;;;;;13.40;100.00;101266.59;105745;1257;62091;-74
2023/09/22 01:00:27;;;;;;;18.60;13.40;;;;;;;13.38;100.00;101261.95;105698;1255;60473;-75
2023/09/22 01:02:55;;;;;;;19.30;12.50;;;;;;;13.36;100.00;101264.04;105745;1252;73951;-73
2023/09/22 01:05:21;;;;;;;21.10;12.90;;;;;;;13.33;100.00;101267.16;105619;1257;63943;-73
2023/09/22 01:07:48;;;;;;;18.40;12.70;;;;;;;13.30;100.00;101267.34;105889;1251;72651;-73
2023/09/22 01:10:15;;;;;;;17.80;13.30;;;;;;;13.29;100.00;101270.08;105631;1255;61969;-75
2023/09/22 01:12:42;;;;;;;19.70;13.30;;;;;;;13.26;100.00;101267.91;105833;1251;60463;-74
2023/09/22 01:15:09;;;;;;;22.50;13.80;;;;;;;13.22;100.00;101267.77;105809;1251;73996;-71
2023/09/22 01:17:37;;;;;;;22.60;13.30;;;;;;;13.20;100.00;101264.04;105694;1257;63991;-73
2023/09/22 01:20:07;;;;;;;18.60;13.60;;;;;;;13.18;100.00;101264.70;105731;1256;72699;-74
2023/09/22 01:22:34;;;;;;;20.40;14.60;;;;;;;13.17;100.00;101269.17;105689;1255;60849;-75
2023/09/22 01:25:00;;;;;;;19.80;12.80;;;;;;;13.15;100.00;101273.52;105799;1255;60464;-73
2023/09/22 01:27:28;;;;;;;22.40;13.70;;;;;;;13.12;100.00;101276.00;105831;1253;73957;-74
2023/09/22 01:29:54;;;;;;;18.30;13.70;;;;;;;13.09;100.00;101280.02;105752;1256;62472;-75
2023/09/22 01:32:22;;;;;;;20.90;13.60;;;;;;;13.06;100.00;101278.63;105857;1255;72669;-72
2023/09/22 01:34:49;;;;;;;21.70;13.50;;;;;;;13.03;100.00;101279.67;105720;1255;61987;-74
2023/09/22 01:37:16;;;;;;;19.30;13.90;;;;;;;13.00;100.00;101276.87;105808;1251;60467;-73
2023/09/22 01:42:08;;;;;;;20.20;14.40;;;;;;;12.96;100.00;101274.80;102703;1294;600992;-75
2023/09/22 01:44:36;;;;;;;18.30;14.20;;;;;;;12.91;100.00;101274.05;105700;1254;60409;-73
2023/09/22 01:47:03;;;;;;;19.70;13.90;;;;;;;12.89;100.00;101278.91;105714;1254;59869;-72
2023/09/22 01:49:31;;;;;;;19.00;14.20;;;;;;;12.88;100.00;101279.34;105627;1260;72558;-75
2023/09/22 01:51:58;;;;;;;22.30;16.10;;;;;;;12.85;100.00;101274.73;105595;1253;62424;-74
2023/09/22 01:54:26;;;;;;;20.40;14.80;;;;;;;12.84;100.00;101273.41;105549;1259;72737;-73
2023/09/22 01:56:53;;;;;;;18.80;14.20;;;;;;;12.83;100.00;101274.02;105701;1254;222060;-72
2023/09/22 01:59:22;;;;;;;16.00;13.90;;;;;;;12.82;100.00;101273.33;105711;1256;59141;-76
2023/09/22 02:01:50;;;;;;;26.00;15.00;;;;;;;12.81;100.00;101274.77;105872;1251;72247;-72
2023/09/22 02:04:17;;;;;;;17.60;14.90;;;;;;;12.80;100.00;101274.02;105745;1251;62395;-75
2023/09/22 02:06:45;;;;;;;21.10;15.60;;;;;;;12.77;100.00;101275.39;105685;1257;71541;-73
2023/09/22 02:09:13;;;;;;;20.00;15.40;;;;;;;12.75;100.00;101281.48;105850;1256;60382;-75
2023/09/22 02:11:40;;;;;;;15.90;14.30;;;;;;;12.73;100.00;101283.70;105817;1251;59980;-74
2023/09/22 02:14:09;;;;;;;22.90;15.00;;;;;;;12.71;100.00;101283.47;105733;1252;71845;-72
2023/09/22 02:16:36;;;;;;;23.50;16.20;;;;;;;12.69;100.00;101286.60;105768;1251;63171;-73
2023/09/22 02:19:04;;;;;;;18.30;14.20;;;;;;;12.67;100.00;101287.40;105703;1257;72340;-71
2023/09/22 02:21:32;;;;;;;22.70;15.40;;;;;;;12.64;100.00;101279.82;105899;1250;61880;-73
2023/09/22 02:24:01;;;;;;;22.70;14.20;;;;;;;12.62;100.00;101281.34;105903;1251;59919;-71
2023/09/22 02:26:28;;;;;;;18.50;14.00;;;;;;;12.62;100.00;101281.15;105892;1256;73225;-73
2023/09/22 02:28:55;;;;;;;19.50;15.40;;;;;;;12.61;100.00;101284.57;105841;1257;62243;-73
2023/09/22 02:31:24;;;;;;;25.30;15.60;;;;;;;12.59;100.00;101284.34;105922;1251;71878;-72
2023/09/22 02:33:51;;;;;;;21.90;15.50;;;;;;;12.58;100.00;101281.78;105895;1256;61680;-74
2023/09/22 02:36:19;;;;;;;20.60;15.60;;;;;;;12.56;100.00;101277.98;105842;1250;60113;-72
2023/09/22 02:38:47;;;;;;;24.40;16.30;;;;;;;12.55;100.00;101281.23;105745;1253;72706;-74
2023/09/22 02:41:15;;;;;;;21.20;16.40;;;;;;;12.54;100.00;101285.33;105952;1256;63725;-73
2023/09/22 02:43:42;;;;;;;23.50;15.50;;;;;;;12.53;100.00;101287.82;105925;1251;72789;-73
2023/09/22 02:46:13;;;;;;;18.10;14.10;;;;;;;12.53;100.00;101284.73;105869;1252;60437;-72
2023/09/22 02:48:41;;;;;;;25.20;15.00;;;;;;;12.50;100.00;101285.03;105917;1256;59570;-73
2023/09/22 02:51:09;;;;;;;18.60;14.80;;;;;;;12.50;100.00;101286.29;105871;1255;72162;-74
2023/09/22 02:53:37;;;;;;;21.60;16.00;;;;;;;12.53;100.00;101286.11;105982;1251;62654;-72
2023/09/22 02:56:07;;;;;;;21.10;15.70;;;;;;;12.56;100.00;101285.20;105840;1251;72611;-72
2023/09/22 02:58:35;;;;;;;18.10;14.80;;;;;;;12.57;100.00;101290.21;105740;1250;60819;-75
2023/09/22 03:01:08;;;;;;;22.60;17.30;;;;;;;12.56;100.00;101288.57;105861;1257;59632;-73
2023/09/22 03:03:42;;;;;;;25.10;15.10;;;;;;;12.53;100.00;101288.36;105889;1251;72969;-73
2023/09/22 03:06:11;;;;;;;19.70;14.60;;;;;;;12.51;100.00;101293.23;105917;1251;62391;-76
2023/09/22 03:08:39;;;;;;;27.80;17.60;;;;;;;12.48;100.00;101295.33;105898;1256;71298;-74
2023/09/22 03:11:07;;;;;;;21.00;15.60;;;;;;;12.45;100.00;101295.33;105680;1251;60909;-74
2023/09/22 03:13:34;;;;;;;19.90;15.00;;;;;;;12.42;100.00;101293.57;105799;1256;60097;-71
2023/09/22 03:16:02;;;;;;;17.70;14.40;;;;;;;12.38;100.00;101295.89;105717;1257;71781;-74
2023/09/22 03:18:29;;;;;;;22.10;15.70;;;;;;;12.34;100.00;101294.17;105751;1256;63701;-73
2023/09/22 03:20:57;;;;;;;21.10;16.20;;;;;;;12.33;100.00;101289.88;105718;1254;72125;-73
2023/09/22 03:23:24;;;;;;;22.10;16.30;;;;;;;12.35;100.00;101292.88;105776;1254;60361;-72
2023/09/22 03:25:51;;;;;;;25.00;17.20;;;;;;;12.38;100.00;101293.78;105759;1253;59822;-73
2023/09/22 03:28:20;;;;;;;21.30;17.10;;;;;;;12.40;100.00;101297.20;105679;1257;72977;-73
2023/09/22 03:30:48;;;;;;;24.00;17.30;;;;;;;12.39;100.00;101300.00;105904;1257;63610;-73
2023/09/22 03:33:16;;;;;;;21.60;15.30;;;;;;;12.38;100.00;101297.63;105727;1251;72715;-74
2023/09/22 03:35:46;;;;;;;21.90;15.90;;;;;;;12.37;100.00;101304.52;105728;1252;60950;-73
2023/09/22 03:38:16;;;;;;;24.50;16.20;;;;;;;12.36;100.00;101308.48;105804;1250;60048;-74
2023/09/22 03:40:43;;;;;;;20.00;16.90;;;;;;;12.33;100.00;101313.52;105856;1256;73432;-72
2023/09/22 03:43:11;;;;;;;28.50;17.40;;;;;;;12.32;100.00;101314.11;105676;1251;62261;-73
2023/09/22 03:45:39;;;;;;;25.60;18.10;;;;;;;12.31;100.00;101316.98;105845;1257;72611;-73
2023/09/22 03:48:08;;;;;;;27.80;18.00;;;;;;;12.30;100.00;101319.66;105900;1256;61927;-75
2023/09/22 03:50:36;;;;;;;19.50;17.40;;;;;;;12.31;100.00;101316.78;105800;1257;60088;-72
2023/09/22 03:53:03;;;;;;;26.70;19.00;;;;;;;12.32;100.00;101321.16;105822;1257;73029;-72
2023/09/22 03:55:32;;;;;;;34.80;18.30;;;;;;;12.31;100.00;101315.20;105902;1251;62496;-73
2023/09/22 03:58:00;;;;;;;23.60;18.10;;;;;;;12.31;100.00;101320.46;105923;1256;71318;-74
2023/09/22 04:00:28;;;;;;;27.30;18.10;;;;;;;12.32;100.00;101313.96;105643;1258;61909;-75
2023/09/22 04:02:56;;;;;;;33.30;20.00;;;;;;;12.34;100.00;101318.58;105806;1258;59656;-74
2023/09/22 04:05:24;;;;;;;26.50;19.70;;;;;;;12.40;100.00;101320.85;105885;1251;71807;-75
2023/09/22 04:07:54;;;;;;;24.40;18.40;;;;;;;12.46;100.00;101325.12;105691;1258;62356;-73
2023/09/22 04:10:22;;;;;;;26.20;16.70;;;;;;;12.50;100.00;101319.77;105769;1251;72845;-73
2023/09/22 04:12:52;;;;;;;47.50;20.10;;;;;;;12.55;100.00;101317.53;105851;1257;60536;-74
2023/09/22 04:15:22;;;;;;;27.70;18.30;;;;;;;12.61;100.00;101320.73;105698;1256;59503;-75
2023/09/22 04:17:51;;;;;;;22.80;16.50;;;;;;;12.65;100.00;101324.15;105748;1256;71450;-72
2023/09/22 04:20:29;;;;;;;29.60;17.40;;;;;;;12.70;100.00;101324.77;105737;1251;61589;-73
2023/09/22 04:22:59;;;;;;;27.00;17.90;;;;;;;12.73;100.00;101322.84;105813;1251;72692;-73
2023/09/22 04:25:33;;;;;;;21.40;18.10;;;;;;;12.77;100.00;101332.76;105857;1256;60485;-73
2023/09/22 04:28:09;;;;;;;28.60;17.90;;;;;;;12.81;100.00;101332.70;106066;1251;59639;-72
2023/09/22 04:30:38;;;;;;;32.60;20.40;;;;;;;12.85;100.00;101337.58;105837;1256;71848;-73
2023/09/22 04:33:10;;;;;;;32.70;19.00;;;;;;;12.90;100.00;101336.27;105793;1257;63725;-74
2023/09/22 04:35:39;;;;;;;24.40;19.40;;;;;;;12.95;100.00;101331.77;105954;1256;71563;-75
2023/09/22 04:38:06;;;;;;;30.70;20.40;;;;;;;13.01;100.00;101333.65;105749;1256;60244;-74
2023/09/22 04:40:39;;;;;;;33.50;20.90;;;;;;;13.09;100.00;101331.66;105811;1256;59975;-73
2023/09/22 04:43:07;;;;;;;28.90;20.90;;;;;;;13.17;100.00;101331.85;105664;1253;71752;-73
2023/09/22 04:45:40;;;;;;;32.70;20.00;;;;;;;13.25;100.00;101331.71;105656;1252;64448;-75
2023/09/22 04:48:08;;;;;;;32.90;20.60;;;;;;;13.44;100.00;101331.35;105829;1254;71625;-75
2023/09/22 04:50:36;;;;;;;30.80;18.40;;;;;;;13.85;100.00;101331.98;105777;1254;61688;-75
2023/09/22 04:53:04;;;;;;;25.90;18.00;;;;;;;14.39;100.00;101329.80;105766;1254;60049;-74
2023/09/22 04:55:35;;;;;;;32.00;19.00;;;;;;;14.87;100.00;101329.62;105740;1254;71961;-75
2023/09/22 04:58:05;;;;;;;26.30;16.70;;;;;;;15.35;100.00;101330.14;105698;1252;63865;-72
2023/09/22 05:00:34;;;;;;;24.80;16.00;;;;;;;15.82;100.00;101336.92;105733;1253;72709;-75
2023/09/22 05:03:05;;;;;;;19.20;14.80;;;;;;;16.22;100.00;101330.04;105755;1254;60488;-75
2023/09/22 05:05:33;;;;;;;23.30;14.90;;;;;;;16.48;100.00;101332.18;105738;1254;60500;-74
2023/09/22 05:08:00;;;;;;;27.70;17.20;;;;;;;16.63;100.00;101333.05;105666;1254;71474;-76
2023/09/22 05:10:28;;;;;;;24.90;16.40;;;;;;;16.73;100.00;101340.70;105802;1257;63743;-72
2023/09/22 05:12:55;;;;;;;32.50;19.70;;;;;;;16.86;100.00;101340.90;105695;1259;71306;-75
2023/09/22 05:15:25;;;;;;;37.90;18.60;;;;;;;16.96;100.00;101342.63;105721;1253;60487;-76
2023/09/22 05:17:55;;;;;;;33.40;18.90;;;;;;;17.06;100.00;101340.80;105726;1256;60212;-76
2023/09/22 05:20:24;;;;;;;23.80;17.20;;;;;;;17.20;100.00;101338.82;105731;1254;71557;-75
2023/09/22 05:22:51;;;;;;;32.70;17.60;;;;;;;17.35;100.00;101342.08;105788;1253;63246;-72
2023/09/22 05:25:18;;;;;;;34.20;17.50;;;;;;;17.64;100.00;101342.88;105744;1254;75604;-73
2023/09/22 05:27:46;;;;;;;22.80;15.20;;;;;;;17.99;100.00;101340.16;105839;1257;61275;-77
2023/09/22 05:30:16;;;;;;;28.70;15.70;;;;;;;18.31;100.00;101341.99;105944;1253;59734;-78
2023/09/22 05:32:45;;;;;;;26.30;16.20;;;;;;;18.57;100.00;101342.19;105710;1254;72862;-76
2023/09/22 05:35:13;;;;;;;25.40;16.30;;;;;;;18.98;100.00;101344.09;105830;1254;62285;-76
2023/09/22 05:37:40;;;;;;;27.20;16.50;;;;;;;19.65;100.00;101347.64;105697;1254;72784;-75
2023/09/22 05:40:12;;;;;;;22.90;13.60;;;;;;;20.45;100.00;101351.55;105785;1259;62406;-73
2023/09/22 05:42:42;;;;;;;25.40;12.40;;;;;;;21.36;100.00;101349.67;105806;1254;60105;-77
2023/09/22 05:45:11;;;;;;;23.10;11.30;;;;;;;22.23;100.00;101347.20;105822;1252;71831;-74
2023/09/22 05:47:39;;;;;;;22.30;11.80;;;;;;;23.06;100.00;101345.43;105716;1253;64081;-74
2023/09/22 05:50:10;;;;;;;17.20;11.70;;;;;;;23.84;100.00;101347.39;105756;1254;70487;-78
2023/09/22 05:52:38;;;;;;;17.40;11.10;;;;;;;24.53;99.13;101349.58;105896;1254;60549;-75
2023/09/22 05:55:10;;;;;;;22.50;11.60;;;;;;;25.18;94.12;101350.02;105843;1254;60380;-76
2023/09/22 05:57:38;;;;;;;29.20;11.30;;;;;;;25.80;83.32;101349.52;105674;1256;72113;-73
2023/09/22 06:00:18;;;;;;;16.10;11.60;;;;;;;26.40;75.71;101349.13;105720;1255;63779;-76
2023/09/22 06:02:49;;;;;;;20.70;11.60;;;;;;;27.02;68.70;101349.41;105876;1254;72729;-74
2023/09/22 06:05:24;;;;;;;21.30;10.40;;;;;;;27.59;65.28;101351.64;105785;1254;60555;-74
2023/09/22 06:07:52;;;;;;;18.70;10.50;;;;;;;28.08;62.33;101349.61;105776;1252;60459;-74
2023/09/22 06:10:20;;;;;;;14.10;9.30;;;;;;;28.49;57.27;101348.23;105691;1257;72982;-76
2023/09/22 06:12:47;;;;;;;16.70;9.10;;;;;;;28.91;53.57;101350.77;105637;1259;63624;-76
2023/09/22 06:15:15;;;;;;;20.40;10.60;;;;;;;29.27;50.14;101351.61;105805;1254;71390;-75
2023/09/22 06:17:43;;;;;;;18.20;10.70;;;;;;;29.62;48.72;101349.89;105758;1254;60754;-75
2023/09/22 06:20:15;;;;;;;17.90;9.80;;;;;;;29.96;47.22;101354.13;105696;1254;60988;-72
2023/09/22 06:22:44;;;;;;;17.10;7.70;;;;;;;30.31;45.12;101352.74;105704;1252;72685;-75
2023/09/22 06:25:13;;;;;;;13.80;7.90;;;;;;;30.60;43.05;101353.80;105726;1252;61965;-72
2023/09/22 06:27:44;;;;;;;12.30;7.10;;;;;;;30.87;43.17;101350.16;105752;1256;71933;-77
2023/09/22 06:30:12;;;;;;;10.60;6.70;;;;;;;31.18;41.42;101354.14;105788;1254;60410;-77
2023/09/22 06:32:45;;;;;;;12.90;7.90;;;;;;;31.48;40.78;101355.37;105672;1253;60559;-73
2023/09/22 06:35:13;;;;;;;12.40;6.70;;;;;;;31.79;39.80;101351.59;105813;1252;76590;-74
2023/09/22 06:37:42;;;;;;;14.50;7.70;;;;;;;32.09;38.67;101354.21;105803;1256;62189;-73
2023/09/22 06:40:15;;;;;;;10.90;6.50;;;;;;;32.38;37.85;101350.02;105823;1257;75391;-74
2023/09/22 06:42:44;;;;;;;11.40;6.10;;;;;;;32.67;37.54;101351.09;105684;1254;60641;-75
2023/09/22 06:45:13;;;;;;;9.30;6.50;;;;;;;32.92;36.78;101350.09;105929;1256;61566;-75
2023/09/22 06:47:41;;;;;;;10.10;6.00;;;;;;;33.15;36.00;101350.79;105785;1254;72647;-74
2023/09/22 06:50:09;;;;;;;10.90;6.40;;;;;;;33.40;35.48;101352.86;105665;1254;62275;-74
2023/09/22 06:52:40;;;;;;;13.20;6.60;;;;;;;33.60;35.14;101350.31;105742;1254;74342;-75
2023/09/22 06:55:13;;;;;;;10.00;6.50;;;;;;;33.78;34.58;101348.98;105806;1254;60454;-74
2023/09/22 06:57:42;;;;;;;8.50;6.60;;;;;;;33.96;34.54;101352.65;105790;1254;60428;-76
2023/09/22 07:00:18;;;;;;;15.60;7.40;;;;;;;34.12;34.18;101351.73;105686;1256;72462;-76
2023/09/22 07:02:47;;;;;;;13.30;8.00;;;;;;;34.34;33.94;101353.14;105740;1256;62526;-78
2023/09/22 07:05:16;;;;;;;22.00;9.90;;;;;;;34.56;33.52;101355.66;105758;1256;71780;-78
2023/09/22 07:07:43;;;;;;;15.90;9.60;;;;;;;34.71;33.33;101354.55;105877;1254;60462;-77
2023/09/22 07:10:10;;;;;;;22.00;8.30;;;;;;;34.88;32.79;101359.38;105816;1256;60450;-76
2023/09/22 07:12:38;;;;;;;17.30;8.10;;;;;;;34.99;32.62;101353.31;105838;1252;72626;-78
2023/09/22 07:15:06;;;;;;;13.60;7.30;;;;;;;35.10;32.65;101356.29;105789;1254;63804;-77
2023/09/22 07:17:34;;;;;;;14.80;7.40;;;;;;;35.20;32.78;101358.98;105777;1256;72679;-77
2023/09/22 07:20:08;;;;;;;19.30;8.60;;;;;;;35.39;31.63;101361.48;105894;1254;60491;-77
2023/09/22 07:22:36;;;;;;;17.70;8.30;;;;;;;35.51;30.90;101364.69;105920;1257;60441;-77
2023/09/22 07:25:06;;;;;;;16.60;8.30;;;;;;;35.62;31.19;101363.48;105741;1256;73102;-75
2023/09/22 07:27:36;;;;;;;13.50;8.00;;;;;;;35.77;30.93;101363.45;105850;1254;62376;-80
2023/09/22 07:30:09;;;;;;;22.10;7.30;;;;;;;35.89;30.06;101365.72;105922;1254;71437;-78
2023/09/22 07:32:40;;;;;;;19.40;7.20;;;;;;;35.95;29.44;101363.09;105811;1253;60571;-77
2023/09/22 07:35:08;;;;;;;21.40;9.00;;;;;;;35.99;29.53;101360.55;105763;1252;60515;-75
2023/09/22 07:37:36;;;;;;;18.70;7.70;;;;;;;36.03;29.42;101362.14;105686;1254;73803;-77
2023/09/22 07:40:08;;;;;;;19.80;7.60;;;;;;;36.10;29.58;101358.98;105896;1254;63852;-73
2023/09/22 07:42:38;;;;;;;17.30;6.60;;;;;;;36.27;29.72;101357.94;105765;1257;71845;-78
2023/09/22 07:45:07;;;;;;;18.10;6.80;;;;;;;36.41;28.57;101360.46;105803;1257;60536;-74
2023/09/22 07:47:34;;;;;;;18.70;6.50;;;;;;;36.39;28.44;101354.39;105859;1251;60524;-76
2023/09/22 07:50:06;;;;;;;19.70;7.70;;;;;;;36.42;28.47;101359.45;105879;1251;72649;-78
2023/09/22 07:52:34;;;;;;;22.50;7.80;;;;;;;36.51;29.05;101354.13;105747;1256;63775;-74
2023/09/22 07:55:02;;;;;;;29.60;9.70;;;;;;;36.61;28.84;101354.28;105784;1251;66598;-75
2023/09/22 07:57:30;;;;;;;23.10;7.80;;;;;;;36.71;28.34;101353.63;105746;1254;60895;-75
2023/09/22 07:59:58;;;;;;;27.40;9.40;;;;;;;36.71;27.82;101354.60;105868;1251;60559;-78
2023/09/22 08:02:25;;;;;;;20.30;9.20;;;;;;;36.77;28.24;101351.80;105798;1251;65028;-75
2023/09/22 08:04:53;;;;;;;23.10;9.80;;;;;;;36.93;28.44;101352.59;105760;1256;60395;-75
2023/09/22 08:07:20;;;;;;;21.10;10.00;;;;;;;37.09;28.33;101348.04;105829;1253;66540;-79
2023/09/22 08:09:48;;;;;;;24.90;9.70;;;;;;;37.23;27.76;101350.54;105832;1251;62340;-80
2023/09/22 08:12:15;;;;;;;27.00;9.20;;;;;;;37.25;27.36;101349.73;105882;1251;60543;-76
2023/09/22 08:14:45;;;;;;;19.70;11.60;;;;;;;37.32;27.56;101348.09;105713;1256;66443;-76
2023/09/22 08:17:24;;;;;;;18.10;9.70;;;;;;;37.51;27.95;101348.56;105903;1251;60491;-78
2023/09/22 08:19:52;;;;;;;22.50;9.90;;;;;;;37.64;27.52;101346.11;105863;1256;64171;-75
2023/09/22 08:22:20;;;;;;;17.70;9.80;;;;;;;37.74;27.63;101343.59;105790;1251;60421;-79
2023/09/22 08:24:48;;;;;;;25.20;9.20;;;;;;;37.82;27.41;101344.52;105816;1256;60403;-78
2023/09/22 08:27:16;;;;;;;16.50;6.80;;;;;;;37.93;27.08;101345.50;105838;1256;63719;-77
2023/09/22 08:29:44;;;;;;;15.80;8.20;;;;;;;37.98;26.39;101338.15;105865;1256;60472;-74
2023/09/22 08:32:11;;;;;;;17.70;8.10;;;;;;;37.91;26.41;101335.63;105807;1251;74572;-75
2023/09/22 08:34:39;;;;;;;14.20;7.70;;;;;;;37.90;26.48;101332.92;105848;1251;60546;-78
2023/09/22 08:37:07;;;;;;;12.60;7.80;;;;;;;37.89;26.79;101327.77;105848;1256;60428;-77
2023/09/22 08:39:34;;;;;;;12.10;8.00;;;;;;;37.85;26.42;101334.23;105746;1251;66608;-78
2023/09/22 08:42:02;;;;;;;13.50;6.00;;;;;;;37.79;26.12;101330.66;105920;1251;60559;-77
2023/09/22 08:44:30;;;;;;;8.50;5.00;;;;;;;37.66;25.78;101331.79;105915;1251;65805;-73
2023/09/22 08:46:57;;;;;;;7.70;4.50;;;;;;;37.57;25.86;101332.13;105882;1259;60538;-78
2023/09/22 08:49:26;;;;;;;14.50;5.10;;;;;;;37.43;26.11;101328.70;105861;1251;60552;-77
2023/09/22 08:51:55;;;;;;;7.40;4.90;;;;;;;37.26;26.22;101326.61;105776;1251;63708;-76
2023/09/22 08:54:23;;;;;;;7.90;4.20;;;;;;;37.12;26.17;101319.98;105756;1260;60543;-75
2023/09/22 08:56:51;;;;;;;8.50;4.40;;;;;;;37.05;26.62;101315.26;105606;1252;62588;-79
2023/09/22 08:59:18;;;;;;;10.40;3.80;;;;;;;37.13;26.86;101316.37;105678;1254;60603;-77
2023/09/22 09:01:46;;;;;;;9.20;4.20;;;;;;;37.31;26.16;101313.49;105875;1256;60431;-75
2023/09/22 09:04:33;;;;;;;10.00;4.00;;;;;;;37.38;26.21;101311.30;105745;1251;67231;-78
2023/09/22 09:07:02;;;;;;;10.60;3.80;;;;;;;37.40;26.15;101310.10;105926;1256;60487;-74
2023/09/22 09:09:44;;;;;;;7.70;4.00;;;;;;;37.46;26.24;101308.20;105921;1254;62789;-78
2023/09/22 09:12:13;;;;;;;10.90;5.20;;;;;;;37.56;25.89;101308.67;105967;1257;60460;-76
2023/09/22 09:14:42;;;;;;;12.50;5.30;;;;;;;37.65;25.73;101307.09;105776;1256;60463;-75
2023/09/22 09:17:20;;;;;;;15.30;6.10;;;;;;;37.73;25.86;101304.76;105859;1251;73834;-75
2023/09/22 09:19:54;;;;;;;18.00;5.60;;;;;;;37.82;25.38;101309.13;105765;1256;60518;-76
2023/09/22 09:22:31;;;;;;;13.60;4.90;;;;;;;37.75;25.32;101299.64;105765;1257;64269;-76
2023/09/22 09:24:59;;;;;;;11.30;3.60;;;;;;;37.73;25.04;101302.40;105791;1256;60533;-78
2023/09/22 09:27:28;;;;;;;12.60;4.00;;;;;;;37.67;24.88;101302.45;105817;1256;60805;-76
2023/09/22 09:29:57;;;;;;;9.80;3.70;;;;;;;37.65;25.23;101298.88;105811;1252;73017;-74
2023/09/22 09:32:26;;;;;;;7.80;2.80;;;;;;;37.73;25.22;101303.94;105847;1251;60540;-77
2023/09/22 09:34:54;;;;;;;13.90;4.80;;;;;;;37.74;24.93;101303.14;105937;1254;65067;-77
2023/09/22 09:37:24;;;;;;;11.80;3.70;;;;;;;37.59;25.19;101302.20;105767;1256;60492;-75
2023/09/22 09:39:52;;;;;;;7.00;3.00;;;;;;;37.46;25.31;101298.89;105780;1256;60498;-76
2023/09/22 09:42:22;;;;;;;8.10;3.30;;;;;;;37.46;25.44;101299.72;105837;1257;63675;-79
2023/09/22 09:45:01;;;;;;;5.40;3.50;;;;;;;37.54;25.51;101294.84;105939;1257;66348;-75
2023/09/22 09:47:34;;;;;;;9.10;3.20;;;;;;;37.66;25.53;101299.71;105782;1251;63799;-75
2023/09/22 09:50:25;;;;;;;8.30;3.60;;;;;;;37.72;25.52;101300.33;105791;1254;60417;-74
2023/09/22 09:52:55;;;;;;;5.50;3.30;;;;;;;37.68;25.73;101292.98;105849;1256;60297;-76
2023/09/22 09:55:24;;;;;;;6.00;3.40;;;;;;;37.64;25.92;101291.31;105968;1251;67099;-77
2023/09/22 09:57:53;;;;;;;6.10;3.80;;;;;;;37.73;26.18;101290.73;105750;1253;60654;-74
2023/09/22 10:00:21;;;;;;;3.60;3.10;;;;;;;37.95;25.87;101286.86;105915;1255;73631;-76
2023/09/22 10:03:07;;;;;;;7.50;3.30;;;;;;;38.12;25.79;101280.91;102684;1296;600512;-76
2023/09/22 10:05:37;;;;;;;9.10;3.00;;;;;;;38.13;25.48;101282.99;104884;1270;59250;-77
2023/09/22 10:08:06;;;;;;;9.90;3.30;;;;;;;38.10;25.47;101284.35;104729;1273;59249;-76
2023/09/22 10:10:38;;;;;;;5.90;2.90;;;;;;;37.98;25.08;101286.95;104809;1270;65369;-77
2023/09/22 10:13:07;;;;;;;5.80;3.60;;;;;;;37.73;25.32;101281.11;104873;1271;59316;-74
2023/09/22 10:15:55;;;;;;;7.40;2.90;;;;;;;37.51;25.36;101284.07;104567;1273;190467;-74
2023/09/22 10:18:46;;;;;;;6.60;2.90;;;;;;;37.21;25.85;101280.92;104924;1264;59348;-76
2023/09/22 10:21:46;;;;;;;6.30;3.00;;;;;;;36.98;26.49;101284.69;104919;1268;59290;-77
2023/09/22 10:24:17;;;;;;;10.00;3.40;;;;;;;36.94;26.52;101277.73;104966;1268;62561;-79
2023/09/22 10:27:08;;;;;;;6.40;3.20;;;;;;;37.04;26.26;101284.44;105485;1258;62653;-79
2023/09/22 10:29:39;;;;;;;;;;;;;;;36.86;26.65;101275.00;105451;1255;65570;-79
2023/09/22 10:34:47;;;;;;;5.80;3.50;;;;;;;36.56;27.61;101271.95;105654;1254;59705;-76
2023/09/22 10:37:16;;;;;;;8.80;3.20;;;;;;;36.65;27.76;101266.98;105491;1258;66129;-73
2023/09/22 10:40:11;;;;;;;5.90;3.40;;;;;;;36.85;27.68;101265.91;105523;1258;60402;-76
2023/09/22 10:42:46;;;;;;;3.80;2.50;;;;;;;36.99;27.12;101263.48;105705;1254;62537;-76
2023/09/22 10:45:14;;;;;;;8.80;3.00;;;;;;;37.02;27.05;101254.60;105558;1258;59784;-75
2023/09/22 10:47:43;;;;;;;8.30;3.40;;;;;;;37.05;26.91;101259.73;105581;1254;62476;-78
2023/09/22 10:50:21;;;;;;;9.90;4.00;;;;;;;36.97;26.92;101261.70;105708;1257;65263;-74
2023/09/22 10:52:53;;;;;;;5.90;3.60;;;;;;;36.70;26.66;101259.62;105508;1258;59727;-78
2023/09/22 10:55:43;;;;;;;7.10;3.00;;;;;;;36.19;27.13;101261.20;105526;1256;64062;-75
2023/09/22 10:58:19;;;;;;;4.20;2.70;;;;;;;35.69;27.80;101257.76;105674;1254;59767;-75
2023/09/22 11:01:00;;;;;;;6.90;3.00;;;;;;;35.27;28.26;101261.88;105526;1258;59674;-75
2023/09/22 11:03:28;;;;;;;6.80;2.80;;;;;;;34.77;29.04;101258.10;105589;1258;72602;-76
2023/09/22 11:06:06;;;;;;;7.50;3.20;;;;;;;34.34;29.79;101263.22;105475;1256;62672;-78
2023/09/22 11:08:46;;;;;;;5.30;3.10;;;;;;;33.99;30.50;101265.80;105536;1256;71280;-76
2023/09/22 11:11:15;;;;;;;7.90;3.50;;;;;;;33.87;31.06;101257.91;105654;1254;60053;-75
2023/09/22 11:13:52;;;;;;;6.50;3.50;;;;;;;33.76;31.13;101250.88;105664;1256;59607;-75
2023/09/22 11:16:20;;;;;;;8.60;3.70;;;;;;;33.64;31.52;101250.34;105575;1256;71171;-71
2023/09/22 11:18:54;;;;;;;7.60;3.00;;;;;;;33.59;31.75;101245.58;105611;1255;62622;-75